createdAt,value
2018-07-26T00:00:38.695Z,27.41
2018-07-26T00:02:31.635Z,27.41
2018-07-26T00:03:31.644Z,27.40
2018-07-26T00:05:24.596Z,27.44
2018-07-26T00:06:24.599Z,27.39
2018-07-26T00:08:17.522Z,27.31
2018-07-26T00:09:17.554Z,27.36
2018-07-26T00:11:10.503Z,27.24
2018-07-26T00:12:10.504Z,27.29
2018-07-26T00:14:03.435Z,27.39
2018-07-26T00:15:03.460Z,27.39
2018-07-26T00:16:56.404Z,27.31
2018-07-26T00:17:56.412Z,27.27
2018-07-26T00:19:49.339Z,27.28
2018-07-26T00:20:49.367Z,27.24
2018-07-26T00:22:42.318Z,27.39
2018-07-26T00:23:42.322Z,27.40
2018-07-26T00:25:35.274Z,27.29
2018-07-26T00:26:35.276Z,27.27
2018-07-26T00:28:28.366Z,27.19
2018-07-26T00:29:28.390Z,27.28
2018-07-26T00:31:21.330Z,27.25
2018-07-26T00:32:21.340Z,27.25
2018-07-26T00:34:14.261Z,27.22
2018-07-26T00:35:14.292Z,27.21
2018-07-26T00:37:07.232Z,27.10
2018-07-26T00:38:07.242Z,27.07
2018-07-26T00:40:00.171Z,27.00
2018-07-26T00:41:00.194Z,26.94
2018-07-26T00:42:53.137Z,26.92
2018-07-26T00:43:53.145Z,26.82
2018-07-26T00:45:46.089Z,26.82
2018-07-26T00:46:46.110Z,26.77
2018-07-26T00:48:39.053Z,26.81
2018-07-26T00:49:39.048Z,26.81
2018-07-26T00:51:31.993Z,26.77
2018-07-26T00:52:32.000Z,26.84
2018-07-26T00:54:24.927Z,26.75
2018-07-26T00:55:24.953Z,26.81
2018-07-26T00:57:17.896Z,26.81
2018-07-26T00:58:17.906Z,26.77
2018-07-26T01:00:10.829Z,26.76
2018-07-26T01:01:10.857Z,26.80
2018-07-26T01:03:03.800Z,26.76
2018-07-26T01:04:03.808Z,26.77
2018-07-26T01:05:57.245Z,26.84
2018-07-26T01:06:57.254Z,26.76
2018-07-26T01:08:50.178Z,26.70
2018-07-26T01:09:50.205Z,26.76
2018-07-26T01:11:43.156Z,26.70
2018-07-26T01:12:43.157Z,26.62
2018-07-26T01:14:37.080Z,26.65
2018-07-26T01:15:37.101Z,26.63
2018-07-26T01:17:30.088Z,26.62
2018-07-26T01:18:30.054Z,26.63
2018-07-26T01:20:22.974Z,26.63
2018-07-26T01:21:23.003Z,26.67
2018-07-26T01:23:15.945Z,26.66
2018-07-26T01:24:15.953Z,26.62
2018-07-26T01:26:08.898Z,26.65
2018-07-26T01:27:08.903Z,26.69
2018-07-26T01:29:01.824Z,26.60
2018-07-26T01:30:01.855Z,26.63
2018-07-26T01:31:54.995Z,26.60
2018-07-26T01:32:55.012Z,26.60
2018-07-26T01:34:48.132Z,26.57
2018-07-26T01:35:48.161Z,26.63
2018-07-26T01:37:41.105Z,26.58
2018-07-26T01:38:41.116Z,26.51
2018-07-26T01:40:34.035Z,26.55
2018-07-26T01:41:34.063Z,26.52
2018-07-26T01:43:27.002Z,26.52
2018-07-26T01:44:27.016Z,26.47
2018-07-26T01:46:19.958Z,26.44
2018-07-26T01:47:19.963Z,26.45
2018-07-26T01:49:12.885Z,26.47
2018-07-26T01:50:12.914Z,26.37
2018-07-26T01:52:05.851Z,26.36
2018-07-26T01:53:05.870Z,26.40
2018-07-26T01:54:58.781Z,26.36
2018-07-26T01:55:58.811Z,26.35
2018-07-26T01:57:51.757Z,26.26
2018-07-26T01:58:51.760Z,26.28
2018-07-26T02:00:44.682Z,26.26
2018-07-26T02:01:44.744Z,26.28
2018-07-26T02:03:37.655Z,26.28
2018-07-26T02:04:37.665Z,26.20
2018-07-26T02:06:30.612Z,26.17
2018-07-26T02:07:30.614Z,26.18
2018-07-26T02:09:23.537Z,26.21
2018-07-26T02:10:23.566Z,26.07
2018-07-26T02:12:16.509Z,26.10
2018-07-26T02:13:16.516Z,26.15
2018-07-26T02:15:09.439Z,26.10
2018-07-26T02:16:09.467Z,26.10
2018-07-26T02:18:02.408Z,25.95
2018-07-26T02:19:02.418Z,26.13
2018-07-26T02:20:55.338Z,25.99
2018-07-26T02:21:55.366Z,26.06
2018-07-26T02:23:48.314Z,26.09
2018-07-26T02:24:48.317Z,26.10
2018-07-26T02:26:41.267Z,26.12
2018-07-26T02:27:41.269Z,25.94
2018-07-26T02:29:34.356Z,25.94
2018-07-26T02:30:34.383Z,25.92
2018-07-26T02:32:27.329Z,25.92
2018-07-26T02:33:27.333Z,25.90
2018-07-26T02:35:20.258Z,25.83
2018-07-26T02:36:20.285Z,25.85
2018-07-26T02:38:13.226Z,25.87
2018-07-26T02:39:13.235Z,25.88
2018-07-26T02:41:06.156Z,25.94
2018-07-26T02:42:06.184Z,25.91
2018-07-26T02:43:59.127Z,25.88
2018-07-26T02:44:59.136Z,25.91
2018-07-26T02:46:52.076Z,25.88
2018-07-26T02:47:52.086Z,25.90
2018-07-26T02:49:45.010Z,25.92
2018-07-26T02:50:45.035Z,25.88
2018-07-26T02:52:37.979Z,25.85
2018-07-26T02:53:37.986Z,25.75
2018-07-26T02:55:30.908Z,25.82
2018-07-26T02:56:30.937Z,25.79
2018-07-26T02:58:24.037Z,25.80
2018-07-26T02:59:24.048Z,25.80
2018-07-26T03:01:16.973Z,25.87
2018-07-26T03:02:16.998Z,25.85
2018-07-26T03:04:09.942Z,25.88
2018-07-26T03:05:09.947Z,25.87
2018-07-26T03:07:02.902Z,25.88
2018-07-26T03:08:02.894Z,25.87
2018-07-26T03:09:55.814Z,25.80
2018-07-26T03:10:55.842Z,25.80
2018-07-26T03:12:48.783Z,25.79
2018-07-26T03:13:48.790Z,25.80
2018-07-26T03:15:41.711Z,25.80
2018-07-26T03:16:41.740Z,25.77
2018-07-26T03:18:34.688Z,25.80
2018-07-26T03:19:34.714Z,25.88
2018-07-26T03:21:27.616Z,25.77
2018-07-26T03:22:27.639Z,25.77
2018-07-26T03:24:20.812Z,25.88
2018-07-26T03:25:20.820Z,25.87
2018-07-26T03:27:13.766Z,25.80
2018-07-26T03:28:13.768Z,25.75
2018-07-26T03:30:06.691Z,25.69
2018-07-26T03:31:06.720Z,25.70
2018-07-26T03:32:59.660Z,25.70
2018-07-26T03:33:59.667Z,25.69
2018-07-26T03:35:53.153Z,25.69
2018-07-26T03:36:53.111Z,25.65
2018-07-26T03:38:46.052Z,25.61
2018-07-26T03:39:46.065Z,25.62
2018-07-26T03:41:38.984Z,25.54
2018-07-26T03:42:39.013Z,25.45
2018-07-26T03:44:31.954Z,25.55
2018-07-26T03:45:31.964Z,25.45
2018-07-26T03:47:24.900Z,25.45
2018-07-26T03:48:24.916Z,25.42
2018-07-26T03:50:17.828Z,25.45
2018-07-26T03:51:17.895Z,25.47
2018-07-26T03:53:10.799Z,25.47
2018-07-26T03:54:10.809Z,25.51
2018-07-26T03:56:03.729Z,25.54
2018-07-26T03:57:03.756Z,25.51
2018-07-26T03:58:56.700Z,25.52
2018-07-26T03:59:56.707Z,25.55
2018-07-26T04:01:49.627Z,25.52
2018-07-26T04:02:49.656Z,25.57
2018-07-26T04:04:42.599Z,25.60
2018-07-26T04:05:42.608Z,25.62
2018-07-26T04:07:35.552Z,25.65
2018-07-26T04:08:35.562Z,25.79
2018-07-26T04:10:28.482Z,25.94
2018-07-26T04:11:28.512Z,26.10
2018-07-26T04:13:21.450Z,26.26
2018-07-26T04:14:21.456Z,26.23
2018-07-26T04:16:14.389Z,26.26
2018-07-26T04:17:14.409Z,26.20
2018-07-26T04:19:07.352Z,26.23
2018-07-26T04:20:07.371Z,26.10
2018-07-26T04:22:00.432Z,26.09
2018-07-26T04:23:00.459Z,26.07
2018-07-26T04:24:54.395Z,25.95
2018-07-26T04:25:54.402Z,25.91
2018-07-26T04:27:47.348Z,25.80
2018-07-26T04:28:47.355Z,25.72
2018-07-26T04:30:40.273Z,25.76
2018-07-26T04:31:40.307Z,25.72
2018-07-26T04:33:33.245Z,25.69
2018-07-26T04:34:33.251Z,25.58
2018-07-26T04:36:26.176Z,25.55
2018-07-26T04:37:26.207Z,25.54
2018-07-26T04:39:19.151Z,25.70
2018-07-26T04:40:19.152Z,25.61
2018-07-26T04:42:12.078Z,25.62
2018-07-26T04:43:12.104Z,25.58
2018-07-26T04:45:05.047Z,25.62
2018-07-26T04:46:05.055Z,25.62
2018-07-26T04:47:57.973Z,25.57
2018-07-26T04:48:58.054Z,25.60
2018-07-26T04:50:51.164Z,25.61
2018-07-26T04:51:51.174Z,25.73
2018-07-26T04:53:44.162Z,25.64
2018-07-26T04:54:44.214Z,25.58
2018-07-26T04:56:37.046Z,25.61
2018-07-26T04:57:37.074Z,25.65
2018-07-26T04:59:30.021Z,25.64
2018-07-26T05:00:30.026Z,25.73
2018-07-26T05:02:22.950Z,26.06
2018-07-26T05:03:22.975Z,26.09
2018-07-26T05:05:15.921Z,26.47
2018-07-26T05:06:15.927Z,26.60
2018-07-26T05:08:08.869Z,26.69
2018-07-26T05:09:08.879Z,26.75
2018-07-26T05:11:01.822Z,27.06
2018-07-26T05:12:01.832Z,27.22
2018-07-26T05:13:54.817Z,27.27
2018-07-26T05:14:54.789Z,27.17
2018-07-26T05:16:47.727Z,27.10
2018-07-26T05:17:47.736Z,27.00
2018-07-26T05:19:40.678Z,26.87
2018-07-26T05:20:40.687Z,26.92
2018-07-26T05:22:33.611Z,27.13
2018-07-26T05:23:33.638Z,27.40
2018-07-26T05:25:26.650Z,27.97
2018-07-26T05:26:26.591Z,28.22
2018-07-26T05:28:19.580Z,28.92
2018-07-26T05:29:19.548Z,29.23
2018-07-26T05:31:12.496Z,29.87
2018-07-26T05:32:12.506Z,30.13
2018-07-26T05:34:05.436Z,30.79
2018-07-26T05:35:05.462Z,31.07
2018-07-26T05:36:58.418Z,30.88
2018-07-26T05:37:58.424Z,30.82
2018-07-26T05:39:51.357Z,30.77
2018-07-26T05:40:51.386Z,30.91
2018-07-26T05:42:44.342Z,31.13
2018-07-26T05:43:44.360Z,31.13
2018-07-26T05:45:37.304Z,31.26
2018-07-26T05:46:37.316Z,31.47
2018-07-26T05:48:30.248Z,31.89
2018-07-26T05:49:30.280Z,32.08
2018-07-26T05:51:23.234Z,32.40
2018-07-26T05:52:23.246Z,32.51
2018-07-26T05:54:16.341Z,32.69
2018-07-26T05:55:16.376Z,32.79
2018-07-26T05:57:09.335Z,33.21
2018-07-26T05:58:09.348Z,33.53
2018-07-26T06:00:02.363Z,33.93
2018-07-26T06:01:02.357Z,34.08
2018-07-26T06:02:55.411Z,34.32
2018-07-26T06:03:55.428Z,34.46
2018-07-26T06:05:48.961Z,34.65
2018-07-26T06:06:48.999Z,34.54
2018-07-26T06:08:42.039Z,34.46
2018-07-26T06:09:42.088Z,34.49
2018-07-26T06:11:35.093Z,34.66
2018-07-26T06:12:35.110Z,34.82
2018-07-26T06:14:28.130Z,34.72
2018-07-26T06:15:28.164Z,34.77
2018-07-26T06:17:21.717Z,34.89
2018-07-26T06:18:21.736Z,34.94
2018-07-26T06:20:14.754Z,35.11
2018-07-26T06:21:14.791Z,35.21
2018-07-26T06:23:07.832Z,35.00
2018-07-26T06:24:07.847Z,34.87
2018-07-26T06:26:00.866Z,34.75
2018-07-26T06:27:00.903Z,34.82
2018-07-26T06:28:53.943Z,34.91
2018-07-26T06:29:53.962Z,35.02
2018-07-26T06:31:47.428Z,35.26
2018-07-26T06:32:47.436Z,35.41
2018-07-26T06:34:40.870Z,35.45
2018-07-26T06:35:40.908Z,35.53
2018-07-26T06:37:33.868Z,35.66
2018-07-26T06:38:33.889Z,35.50
2018-07-26T06:40:26.837Z,35.71
2018-07-26T06:41:26.873Z,35.72
2018-07-26T06:43:20.828Z,35.71
2018-07-26T06:44:20.849Z,35.74
2018-07-26T06:46:13.793Z,35.55
2018-07-26T06:47:13.831Z,35.44
2018-07-26T06:49:06.797Z,35.34
2018-07-26T06:50:06.818Z,35.28
2018-07-26T06:51:59.761Z,35.21
2018-07-26T06:52:59.805Z,35.06
2018-07-26T06:54:52.764Z,35.09
2018-07-26T06:55:52.781Z,35.00
2018-07-26T06:57:45.724Z,35.07
2018-07-26T06:58:45.765Z,35.09
2018-07-26T07:00:38.763Z,34.82
2018-07-26T07:01:38.752Z,34.89
2018-07-26T07:03:31.714Z,34.78
2018-07-26T07:04:31.729Z,34.69
2018-07-26T07:06:25.167Z,34.77
2018-07-26T07:07:25.205Z,34.84
2018-07-26T07:09:18.168Z,34.84
2018-07-26T07:10:18.191Z,34.94
2018-07-26T07:12:11.135Z,35.11
2018-07-26T07:13:11.173Z,35.26
2018-07-26T07:15:04.142Z,35.29
2018-07-26T07:16:04.160Z,35.37
2018-07-26T07:17:57.111Z,35.14
2018-07-26T07:18:57.149Z,35.16
2018-07-26T07:20:50.115Z,35.29
2018-07-26T07:21:50.134Z,35.22
2018-07-26T07:23:43.081Z,35.26
2018-07-26T07:24:43.121Z,35.29
2018-07-26T07:26:37.078Z,35.26
2018-07-26T07:27:37.100Z,35.28
2018-07-26T07:29:30.064Z,34.99
2018-07-26T07:30:30.084Z,34.81
2018-07-26T07:32:23.025Z,34.31
2018-07-26T07:33:23.062Z,34.22
2018-07-26T07:35:16.024Z,34.16
2018-07-26T07:36:16.040Z,34.12
2018-07-26T07:38:08.979Z,34.19
2018-07-26T07:39:09.015Z,34.15
2018-07-26T07:41:01.973Z,34.08
2018-07-26T07:42:01.992Z,34.19
2018-07-26T07:43:54.925Z,34.21
2018-07-26T07:44:54.961Z,34.30
2018-07-26T07:46:48.414Z,34.35
2018-07-26T07:47:48.430Z,34.37
2018-07-26T07:49:41.392Z,34.28
2018-07-26T07:50:41.407Z,34.37
2018-07-26T07:52:34.347Z,34.32
2018-07-26T07:53:34.380Z,34.19
2018-07-26T07:55:27.338Z,34.21
2018-07-26T07:56:27.351Z,34.16
2018-07-26T07:58:20.291Z,34.24
2018-07-26T07:59:20.327Z,34.24
2018-07-26T08:01:13.286Z,34.35
2018-07-26T08:02:13.301Z,34.43
2018-07-26T08:04:06.774Z,34.52
2018-07-26T08:05:06.766Z,34.49
2018-07-26T08:06:59.727Z,34.50
2018-07-26T08:07:59.743Z,34.28
2018-07-26T08:09:52.701Z,34.32
2018-07-26T08:10:52.720Z,34.32
2018-07-26T08:12:45.760Z,34.30
2018-07-26T08:13:45.689Z,34.42
2018-07-26T08:15:40.138Z,34.54
2018-07-26T08:16:40.153Z,34.28
2018-07-26T08:18:33.586Z,34.17
2018-07-26T08:19:33.619Z,34.25
2018-07-26T08:21:26.591Z,34.28
2018-07-26T08:22:26.588Z,34.19
2018-07-26T08:24:19.521Z,34.13
2018-07-26T08:25:19.556Z,34.17
2018-07-26T08:27:12.507Z,34.19
2018-07-26T08:28:12.524Z,34.16
2018-07-26T08:30:05.461Z,34.34
2018-07-26T08:31:05.497Z,34.49
2018-07-26T08:32:58.453Z,34.61
2018-07-26T08:33:58.465Z,34.61
2018-07-26T08:35:51.450Z,34.66
2018-07-26T08:36:51.439Z,34.69
2018-07-26T08:38:44.376Z,34.56
2018-07-26T08:39:44.411Z,34.61
2018-07-26T08:41:37.369Z,34.66
2018-07-26T08:42:37.381Z,34.75
2018-07-26T08:44:30.332Z,34.84
2018-07-26T08:45:30.367Z,34.81
2018-07-26T08:47:23.442Z,34.88
2018-07-26T08:48:23.423Z,34.87
2018-07-26T08:50:16.472Z,34.97
2018-07-26T08:51:17.424Z,35.06
2018-07-26T08:53:09.521Z,35.11
2018-07-26T08:54:09.574Z,35.10
2018-07-26T08:56:02.560Z,35.11
2018-07-26T08:57:02.593Z,35.19
2018-07-26T08:58:55.657Z,35.28
2018-07-26T08:59:55.649Z,35.28
2018-07-26T09:01:48.673Z,35.33
2018-07-26T09:02:48.758Z,35.47
2018-07-26T09:04:41.745Z,35.44
2018-07-26T09:05:41.761Z,35.41
2018-07-26T09:07:34.785Z,35.50
2018-07-26T09:08:34.821Z,35.55
2018-07-26T09:10:27.858Z,35.55
2018-07-26T09:11:27.878Z,35.53
2018-07-26T09:13:20.988Z,35.53
2018-07-26T09:14:20.936Z,35.58
2018-07-26T09:16:14.480Z,35.59
2018-07-26T09:17:14.515Z,35.66
2018-07-26T09:19:07.537Z,35.60
2018-07-26T09:20:07.559Z,35.58
2018-07-26T09:22:00.579Z,35.68
2018-07-26T09:23:00.615Z,35.63
2018-07-26T09:24:53.653Z,35.45
2018-07-26T09:25:53.667Z,35.38
2018-07-26T09:27:46.736Z,35.43
2018-07-26T09:28:46.760Z,35.22
2018-07-26T09:30:39.800Z,35.22
2018-07-26T09:31:39.780Z,35.10
2018-07-26T09:33:32.823Z,35.11
2018-07-26T09:34:32.840Z,35.03
2018-07-26T09:36:25.859Z,35.04
2018-07-26T09:37:25.893Z,35.06
2018-07-26T09:39:18.933Z,35.07
2018-07-26T09:40:18.949Z,34.97
2018-07-26T09:42:11.974Z,35.10
2018-07-26T09:43:12.008Z,35.10
2018-07-26T09:45:05.046Z,35.03
2018-07-26T09:46:05.063Z,34.92
2018-07-26T09:47:58.086Z,34.81
2018-07-26T09:48:58.123Z,34.84
2018-07-26T09:50:51.669Z,34.81
2018-07-26T09:51:51.708Z,34.78
2018-07-26T09:53:44.712Z,34.92
2018-07-26T09:54:44.809Z,34.89
2018-07-26T09:56:37.785Z,34.77
2018-07-26T09:57:37.798Z,34.65
2018-07-26T09:59:30.842Z,34.73
2018-07-26T10:00:30.854Z,34.91
2018-07-26T10:02:23.811Z,34.91
2018-07-26T10:03:23.830Z,35.02
2018-07-26T10:05:16.786Z,35.03
2018-07-26T10:06:16.804Z,35.03
2018-07-26T10:08:09.739Z,35.15
2018-07-26T10:09:09.772Z,35.09
2018-07-26T10:11:02.731Z,35.16
2018-07-26T10:12:02.746Z,35.04
2018-07-26T10:13:55.719Z,35.26
2018-07-26T10:14:55.756Z,35.31
2018-07-26T10:16:48.678Z,35.50
2018-07-26T10:17:48.692Z,35.56
2018-07-26T10:19:43.123Z,35.71
2018-07-26T10:20:43.158Z,35.78
2018-07-26T10:22:36.119Z,35.84
2018-07-26T10:23:36.133Z,35.84
2018-07-26T10:25:29.108Z,35.74
2018-07-26T10:26:29.104Z,35.70
2018-07-26T10:28:22.537Z,35.52
2018-07-26T10:29:22.571Z,35.50
2018-07-26T10:31:17.024Z,35.48
2018-07-26T10:32:17.042Z,35.50
2018-07-26T10:34:09.978Z,35.52
2018-07-26T10:35:10.014Z,35.56
2018-07-26T10:37:02.974Z,35.43
2018-07-26T10:38:03.020Z,35.41
2018-07-26T10:39:55.947Z,35.52
2018-07-26T10:40:55.962Z,35.71
2018-07-26T10:42:48.921Z,35.62
2018-07-26T10:43:48.932Z,35.70
2018-07-26T10:45:42.362Z,35.63
2018-07-26T10:46:42.397Z,35.62
2018-07-26T10:48:35.355Z,35.78
2018-07-26T10:49:35.367Z,35.77
2018-07-26T10:51:28.315Z,35.81
2018-07-26T10:52:28.345Z,35.77
2018-07-26T10:54:21.304Z,35.63
2018-07-26T10:55:21.319Z,35.68
2018-07-26T10:57:14.766Z,35.70
2018-07-26T10:58:14.783Z,35.59
2018-07-26T11:00:15.282Z,35.55
2018-07-26T11:01:15.766Z,35.58
2018-07-26T11:03:08.208Z,35.40
2018-07-26T11:04:08.224Z,35.45
2018-07-26T11:06:01.183Z,35.44
2018-07-26T11:07:01.200Z,35.53
2018-07-26T11:08:54.157Z,35.78
2018-07-26T11:09:54.208Z,35.70
2018-07-26T11:11:47.111Z,35.80
2018-07-26T11:12:47.145Z,35.58
2018-07-26T11:14:50.659Z,35.70
2018-07-26T11:15:40.115Z,35.56
2018-07-26T11:17:33.564Z,35.60
2018-07-26T11:18:33.583Z,35.78
2018-07-26T11:20:27.513Z,35.90
2018-07-26T11:21:27.547Z,35.93
2018-07-26T11:23:20.998Z,36.00
2018-07-26T11:24:21.068Z,36.07
2018-07-26T11:26:13.950Z,36.05
2018-07-26T11:27:13.985Z,36.19
2018-07-26T11:29:06.944Z,36.20
2018-07-26T11:30:06.956Z,36.25
2018-07-26T11:32:00.392Z,36.23
2018-07-26T11:33:00.424Z,36.23
2018-07-26T11:34:53.390Z,36.13
2018-07-26T11:35:53.465Z,36.27
2018-07-26T11:37:46.390Z,36.17
2018-07-26T11:38:46.380Z,36.22
2018-07-26T11:40:39.341Z,36.25
2018-07-26T11:41:39.356Z,36.22
2018-07-26T11:43:32.336Z,36.22
2018-07-26T11:44:32.329Z,36.28
2018-07-26T11:46:25.270Z,36.19
2018-07-26T11:47:25.305Z,36.20
2018-07-26T11:49:18.264Z,36.07
2018-07-26T11:50:18.280Z,36.15
2018-07-26T11:52:11.729Z,36.08
2018-07-26T11:53:11.758Z,35.97
2018-07-26T11:55:04.713Z,36.08
2018-07-26T11:56:04.728Z,36.08
2018-07-26T11:57:57.665Z,36.07
2018-07-26T11:58:57.701Z,36.12
2018-07-26T12:00:50.659Z,36.13
2018-07-26T12:01:50.669Z,35.99
2018-07-26T12:03:43.614Z,35.90
2018-07-26T12:04:43.649Z,36.07
2018-07-26T12:06:36.613Z,36.05
2018-07-26T12:07:36.626Z,36.09
2018-07-26T12:09:29.597Z,36.09
2018-07-26T12:10:29.598Z,36.13
2018-07-26T12:12:22.538Z,36.23
2018-07-26T12:13:22.575Z,36.23
2018-07-26T12:15:15.534Z,36.22
2018-07-26T12:16:15.547Z,36.13
2018-07-26T12:18:08.491Z,36.17
2018-07-26T12:19:08.530Z,36.31
2018-07-26T12:21:01.490Z,36.44
2018-07-26T12:22:01.503Z,36.38
2018-07-26T12:23:54.441Z,36.49
2018-07-26T12:24:54.481Z,36.41
2018-07-26T12:26:47.447Z,36.31
2018-07-26T12:27:47.447Z,36.28
2018-07-26T12:29:40.385Z,36.16
2018-07-26T12:30:40.423Z,36.15
2018-07-26T12:32:33.381Z,36.19
2018-07-26T12:33:33.397Z,36.34
2018-07-26T12:35:26.359Z,36.29
2018-07-26T12:36:26.372Z,36.35
2018-07-26T12:38:19.313Z,36.54
2018-07-26T12:39:19.346Z,36.62
2018-07-26T12:41:12.325Z,36.59
2018-07-26T12:42:12.321Z,36.59
2018-07-26T12:44:05.256Z,36.66
2018-07-26T12:45:05.291Z,36.75
2018-07-26T12:46:58.741Z,36.81
2018-07-26T12:47:58.760Z,36.87
2018-07-26T12:49:52.187Z,36.88
2018-07-26T12:50:52.224Z,36.87
2018-07-26T12:52:45.182Z,36.85
2018-07-26T12:53:45.199Z,36.85
2018-07-26T12:55:38.188Z,36.91
2018-07-26T12:56:38.176Z,36.98
2018-07-26T12:58:31.135Z,36.83
2018-07-26T12:59:31.150Z,36.90
2018-07-26T13:01:25.616Z,36.83
2018-07-26T13:02:25.616Z,36.91
2018-07-26T13:04:18.554Z,36.83
2018-07-26T13:05:18.588Z,36.87
2018-07-26T13:07:11.559Z,36.98
2018-07-26T13:08:11.563Z,36.99
2018-07-26T13:10:04.998Z,36.76
2018-07-26T13:11:05.031Z,36.60
2018-07-26T13:12:58.480Z,36.57
2018-07-26T13:13:58.498Z,36.56
2018-07-26T13:15:51.437Z,36.53
2018-07-26T13:16:51.478Z,36.62
2018-07-26T13:18:44.926Z,36.62
2018-07-26T13:19:44.941Z,36.65
2018-07-26T13:21:38.381Z,36.54
2018-07-26T13:22:38.416Z,36.53
2018-07-26T13:24:31.373Z,36.39
2018-07-26T13:25:31.389Z,36.37
2018-07-26T13:27:24.346Z,36.31
2018-07-26T13:28:24.364Z,36.41
2018-07-26T13:30:17.298Z,36.44
2018-07-26T13:31:17.333Z,36.68
2018-07-26T13:33:10.292Z,36.68
2018-07-26T13:34:10.309Z,36.64
2018-07-26T13:36:04.794Z,36.51
2018-07-26T13:37:04.772Z,36.41
2018-07-26T13:38:57.730Z,36.43
2018-07-26T13:39:57.811Z,36.39
2018-07-26T13:41:51.223Z,36.44
2018-07-26T13:42:51.216Z,36.49
2018-07-26T13:44:44.178Z,36.51
2018-07-26T13:45:44.190Z,36.43
2018-07-26T13:47:38.148Z,36.43
2018-07-26T13:48:38.159Z,36.57
2018-07-26T13:50:31.096Z,36.69
2018-07-26T13:51:31.132Z,36.87
2018-07-26T13:53:24.094Z,36.91
2018-07-26T13:54:24.109Z,36.83
2018-07-26T13:56:18.042Z,36.87
2018-07-26T13:57:18.079Z,36.88
2018-07-26T13:59:11.039Z,37.07
2018-07-26T14:00:11.054Z,37.15
2018-07-26T14:02:04.001Z,37.07
2018-07-26T14:03:04.031Z,37.21
2018-07-26T14:04:56.990Z,37.46
2018-07-26T14:05:57.007Z,37.56
2018-07-26T14:07:49.945Z,37.55
2018-07-26T14:08:49.980Z,37.59
2018-07-26T14:10:42.941Z,37.60
2018-07-26T14:11:42.955Z,37.60
2018-07-26T14:13:36.406Z,37.66
2018-07-26T14:14:36.424Z,37.57
2018-07-26T14:16:29.362Z,37.51
2018-07-26T14:17:29.399Z,37.50
2018-07-26T14:19:22.360Z,37.60
2018-07-26T14:20:22.373Z,37.47
2018-07-26T14:22:15.821Z,37.64
2018-07-26T14:23:15.845Z,37.67
2018-07-26T14:25:08.804Z,37.46
2018-07-26T14:26:08.816Z,37.37
2018-07-26T14:28:01.755Z,37.31
2018-07-26T14:29:01.790Z,37.29
2018-07-26T14:30:54.749Z,37.24
2018-07-26T14:31:54.767Z,37.25
2018-07-26T14:33:48.198Z,37.22
2018-07-26T14:34:48.234Z,37.34
2018-07-26T14:36:41.194Z,37.20
2018-07-26T14:37:41.210Z,37.29
2018-07-26T14:39:34.660Z,37.40
2018-07-26T14:40:34.678Z,37.32
2018-07-26T14:42:27.648Z,37.32
2018-07-26T14:43:27.683Z,37.41
2018-07-26T14:45:21.268Z,37.41
2018-07-26T14:46:21.249Z,37.49
2018-07-26T14:48:14.275Z,37.50
2018-07-26T14:49:14.306Z,37.41
2018-07-26T14:51:07.348Z,37.50
2018-07-26T14:52:07.362Z,37.44
2018-07-26T14:54:01.826Z,37.55
2018-07-26T14:55:01.855Z,37.51
2018-07-26T14:56:54.894Z,37.50
2018-07-26T14:57:54.908Z,37.44
2018-07-26T14:59:47.948Z,37.18
2018-07-26T15:00:47.976Z,37.20
2018-07-26T15:02:40.991Z,36.90
2018-07-26T15:03:41.022Z,36.91
2018-07-26T15:05:34.063Z,36.91
2018-07-26T15:06:34.085Z,36.91
2018-07-26T15:08:28.020Z,36.87
2018-07-26T15:09:28.055Z,37.12
2018-07-26T15:11:21.097Z,37.03
2018-07-26T15:12:21.112Z,37.15
2018-07-26T15:14:14.196Z,37.21
2018-07-26T15:15:14.166Z,37.24
2018-07-26T15:17:07.242Z,37.10
2018-07-26T15:18:07.221Z,36.91
2018-07-26T15:20:00.283Z,36.85
2018-07-26T15:21:00.311Z,36.98
2018-07-26T15:22:54.951Z,37.00
2018-07-26T15:23:54.900Z,37.07
2018-07-26T15:25:48.428Z,37.03
2018-07-26T15:26:48.443Z,37.06
2018-07-26T15:28:41.464Z,37.06
2018-07-26T15:29:41.502Z,36.99
2018-07-26T15:31:35.051Z,37.00
2018-07-26T15:32:35.067Z,37.05
2018-07-26T15:34:28.280Z,37.07
2018-07-26T15:35:28.241Z,37.06
2018-07-26T15:37:21.268Z,36.91
2018-07-26T15:38:21.281Z,37.02
2018-07-26T15:40:14.814Z,36.90
2018-07-26T15:41:14.849Z,36.98
2018-07-26T15:43:07.902Z,37.06
2018-07-26T15:46:00.945Z,37.07
2018-07-26T15:47:01.034Z,37.13
2018-07-26T15:48:54.072Z,37.21
2018-07-26T15:49:54.017Z,37.31
2018-07-26T15:51:47.057Z,37.31
2018-07-26T15:52:47.075Z,37.25
2018-07-26T15:54:40.190Z,37.29
2018-07-26T15:55:40.195Z,37.25
2018-07-26T15:57:33.169Z,37.20
2018-07-26T15:58:33.187Z,37.22
2018-07-26T16:00:26.211Z,37.22
2018-07-26T16:01:26.246Z,37.36
2018-07-26T16:03:19.286Z,37.36
2018-07-26T16:04:19.300Z,37.40
2018-07-26T16:06:12.338Z,37.51
2018-07-26T16:07:12.354Z,37.46
2018-07-26T16:09:06.298Z,37.44
2018-07-26T16:10:06.335Z,37.55
2018-07-26T16:11:59.887Z,37.36
2018-07-26T16:12:59.903Z,37.32
2018-07-26T16:14:52.923Z,37.21
2018-07-26T16:15:52.957Z,37.10
2018-07-26T16:17:46.089Z,36.87
2018-07-26T16:18:46.016Z,36.76
2018-07-26T16:20:39.043Z,36.85
2018-07-26T16:21:39.068Z,36.90
2018-07-26T16:23:32.623Z,36.84
2018-07-26T16:24:32.637Z,36.81
2018-07-26T16:26:25.679Z,36.88
2018-07-26T16:27:25.695Z,36.88
2018-07-26T16:29:18.716Z,36.93
2018-07-26T16:30:18.751Z,36.91
2018-07-26T16:32:11.904Z,37.05
2018-07-26T16:33:11.812Z,36.84
2018-07-26T16:35:04.832Z,36.81
2018-07-26T16:36:04.871Z,36.71
2018-07-26T16:37:57.904Z,36.73
2018-07-26T16:38:57.918Z,36.71
2018-07-26T16:40:51.454Z,36.72
2018-07-26T16:41:51.487Z,36.73
2018-07-26T16:43:46.115Z,36.93
2018-07-26T16:44:46.057Z,36.84
2018-07-26T16:46:39.121Z,36.83
2018-07-26T16:47:39.140Z,36.87
2018-07-26T16:49:42.089Z,36.81
2018-07-26T16:50:42.122Z,36.85
2018-07-26T16:52:35.109Z,36.85
2018-07-26T16:53:35.098Z,36.80
2018-07-26T16:55:28.030Z,36.69
2018-07-26T16:56:28.065Z,36.69
2018-07-26T16:58:21.223Z,36.69
2018-07-26T16:59:21.083Z,36.51
2018-07-26T17:01:14.019Z,36.50
2018-07-26T17:02:14.053Z,36.43
2018-07-26T17:04:07.012Z,36.31
2018-07-26T17:05:07.022Z,36.28
2018-07-26T17:06:59.981Z,36.35
2018-07-26T17:07:59.991Z,36.28
2018-07-26T17:09:52.936Z,36.34
2018-07-26T17:10:52.968Z,36.31
2018-07-26T17:12:45.984Z,36.25
2018-07-26T17:13:45.966Z,36.23
2018-07-26T17:15:38.892Z,36.25
2018-07-26T17:16:38.953Z,36.28
2018-07-26T17:18:31.885Z,36.12
2018-07-26T17:19:31.897Z,35.99
2018-07-26T17:21:24.864Z,36.03
2018-07-26T17:22:24.870Z,35.99
2018-07-26T17:24:17.823Z,36.12
2018-07-26T17:25:17.838Z,36.12
2018-07-26T17:27:10.850Z,36.22
2018-07-26T17:28:10.817Z,36.22
2018-07-26T17:30:03.755Z,36.17
2018-07-26T17:31:03.787Z,36.16
2018-07-26T17:32:56.743Z,36.13
2018-07-26T17:33:56.756Z,36.09
2018-07-26T17:35:49.761Z,36.07
2018-07-26T17:36:49.734Z,36.16
2018-07-26T17:38:42.733Z,36.12
2018-07-26T17:39:43.224Z,36.09
2018-07-26T17:41:35.670Z,36.08
2018-07-26T17:42:35.684Z,36.01
2018-07-26T17:44:28.655Z,35.85
2018-07-26T17:45:28.716Z,35.97
2018-07-26T17:47:21.631Z,35.89
2018-07-26T17:48:21.633Z,35.92
2018-07-26T17:50:14.604Z,35.93
2018-07-26T17:51:14.709Z,35.89
2018-07-26T17:53:07.582Z,35.74
2018-07-26T17:54:07.594Z,35.80
2018-07-26T17:56:00.588Z,35.74
2018-07-26T17:57:00.588Z,35.75
2018-07-26T17:58:53.544Z,35.66
2018-07-26T17:59:53.553Z,35.72
2018-07-26T18:01:46.487Z,35.78
2018-07-26T18:02:46.519Z,35.94
2018-07-26T18:04:39.554Z,36.27
2018-07-26T18:05:39.491Z,36.32
2018-07-26T18:07:32.449Z,36.43
2018-07-26T18:08:32.459Z,36.60
2018-07-26T18:10:25.404Z,36.75
2018-07-26T18:11:25.429Z,36.90
2018-07-26T18:13:18.381Z,36.98
2018-07-26T18:14:18.394Z,37.03
2018-07-26T18:16:11.329Z,37.21
2018-07-26T18:17:11.364Z,37.17
2018-07-26T18:19:04.323Z,37.39
2018-07-26T18:20:04.332Z,37.31
2018-07-26T18:21:57.761Z,37.20
2018-07-26T18:22:57.797Z,37.06
2018-07-26T18:24:50.755Z,36.83
2018-07-26T18:25:50.768Z,36.76
2018-07-26T18:27:43.729Z,36.73
2018-07-26T18:28:43.738Z,36.78
2018-07-26T18:30:36.677Z,36.83
2018-07-26T18:31:36.809Z,36.65
2018-07-26T18:33:29.666Z,36.81
2018-07-26T18:34:29.677Z,36.83
2018-07-26T18:36:22.610Z,36.69